This is the latest recevied weather packets stored in our database for station/object F4CYQ-10. If no packets are shown the sender has not sent any weather packets the latest 10 day(s).
| Time | Temp. | Humidity | Pressure | Rain* | Wind** | Luminosity | Snow |
|---|---|---|---|---|---|---|---|
| 1777825021 | 20° C | 60% | 1012.5 hPa | - | - | - | - |
| 1777824120 | -5° C | 100% | 4.8 hPa | - | - | - | - |
| 1777823218 | -5° C | 100% | 4.8 hPa | - | - | - | - |
| 1777823052 | 21.67° C | 60% | 1013.3 hPa | - | - | - | - |
| 1777823003 | 20.56° C | 59% | 1013.1 hPa | - | - | - | - |
| 1777822102 | 20° C | 61% | 1012.9 hPa | - | - | - | - |
| 1777821201 | 20.56° C | 61% | 1013.3 hPa | - | - | - | - |
| 1777820299 | 21.67° C | 60% | 1013.3 hPa | - | - | - | - |
| 1777820032 | 20.56° C | 61% | 1013.2 hPa | - | - | - | - |
| 1777819131 | 20° C | 61% | 1013.4 hPa | - | - | - | - |
| 1777818230 | 21.11° C | 61% | 1013.9 hPa | - | - | - | - |
| 1777817329 | 21.67° C | 60% | 1013.7 hPa | - | - | - | - |
| 1777817114 | 20.56° C | 60% | 1013.6 hPa | - | - | - | - |
| 1777816213 | 20.56° C | 60% | 1013.4 hPa | - | - | - | - |
| 1777815312 | 20° C | 60% | 1013.8 hPa | - | - | - | - |
| 1777814411 | 21.11° C | 60% | 1013.8 hPa | - | - | - | - |
| 1777813823 | 20° C | 60% | 1013.8 hPa | - | - | - | - |
| 1777812922 | 20.56° C | 60% | 1013.9 hPa | - | - | - | - |
| 1777812021 | 21.11° C | 61% | 1013.9 hPa | - | - | - | - |
| 1777811525 | 20° C | 61% | 1014 hPa | - | - | - | - |
| 1777810625 | 20.56° C | 61% | 1014 hPa | - | - | - | - |
| 1777809724 | 21.11° C | 61% | 1014.1 hPa | - | - | - | - |
| 1777809707 | 20.56° C | 61% | 1014.5 hPa | - | - | - | - |
| 1777809095 | 20° C | 62% | 1014.1 hPa | - | - | - | - |
| 1777808194 | 20° C | 61% | 1014.2 hPa | - | - | - | - |
* Rain since midnight (hover to see other rain measurements)
** Current wind speed in m/s (hover to see current wind gust speed)